Time;durP1;ratioP1;P1;durP2;ratioP2;P2;SDS_P1;SDS_P2;PMS_P1;PMS_P2;Temp;Humidity;BMP_temperature;BMP_pressure;BME280_temperature;BME280_humidity;BME280_pressure;Samples;Min_cycle;Max_cycle;Signal;HPM_P1;HPM_P2
2022/12/04 00:02:21;;;;;;;59.33;20.02;;;;;;;;;;4899916;29;20060;-77
2022/12/04 00:04:48;;;;;;;52.25;19.05;;;;;;;;;;4874552;29;20061;-77
2022/12/04 00:07:14;;;;;;;53.13;17.63;;;;;;;;;;4892845;29;20061;-77
2022/12/04 00:09:41;;;;;;;59.08;19.85;;;;;;;;;;4892533;29;20501;-77
2022/12/04 00:12:07;;;;;;;55.15;19.38;;;;;;;;;;4873396;29;20539;-77
2022/12/04 00:14:34;;;;;;;56.15;18.75;;;;;;;;;;4898504;29;20060;-78
2022/12/04 00:17:20;;;;;;;55.72;17.83;;;;;;;;;;4911228;29;20060;-77
2022/12/04 00:19:47;;;;;;;53.47;18.80;;;;;;;;;;4910808;29;20442;-77
2022/12/04 00:22:13;;;;;;;54.83;20.17;;;;;;;;;;4889348;29;20061;-77
2022/12/04 00:24:40;;;;;;;53.22;19.30;;;;;;;;;;4891111;29;20064;-77
2022/12/04 00:27:06;;;;;;;58.55;19.45;;;;;;;;;;4891278;29;20797;-77
2022/12/04 00:29:32;;;;;;;57.30;19.10;;;;;;;;;;4890259;29;20063;-77
2022/12/04 00:31:59;;;;;;;59.97;19.38;;;;;;;;;;4891482;29;20417;-77
2022/12/04 00:34:27;;;;;;;62.05;19.73;;;;;;;;;;4906119;29;20083;-78
2022/12/04 00:36:53;;;;;;;56.50;20.02;;;;;;;;;;4908776;29;20068;-77
2022/12/04 00:39:19;;;;;;;51.38;17.70;;;;;;;;;;4882926;29;20090;-78
2022/12/04 00:41:46;;;;;;;53.53;19.75;;;;;;;;;;4883728;29;20513;-77
2022/12/04 00:44:12;;;;;;;55.83;19.38;;;;;;;;;;4894405;29;20057;-78
2022/12/04 00:46:38;;;;;;;58.13;20.25;;;;;;;;;;4890479;29;20056;-77
2022/12/04 00:49:05;;;;;;;59.60;20.58;;;;;;;;;;4891507;29;20148;-77
2022/12/04 00:51:31;;;;;;;56.30;19.20;;;;;;;;;;4890512;29;20509;-78
2022/12/04 00:53:58;;;;;;;55.17;19.58;;;;;;;;;;4887739;29;20061;-77
2022/12/04 00:56:25;;;;;;;59.35;20.40;;;;;;;;;;4887786;29;20057;-77
2022/12/04 00:58:52;;;;;;;59.60;20.77;;;;;;;;;;4890914;29;20053;-77
2022/12/04 01:01:19;;;;;;;55.08;19.70;;;;;;;;;;4873803;29;20140;-77
2022/12/04 01:03:46;;;;;;;63.38;20.77;;;;;;;;;;4890663;29;20133;-78
2022/12/04 01:06:22;;;;;;;61.45;20.30;;;;;;;;;;4890110;29;20410;-78
2022/12/04 01:08:50;;;;;;;62.60;20.20;;;;;;;;;;4882349;29;20060;-77
2022/12/04 01:11:17;;;;;;;60.80;20.50;;;;;;;;;;4884672;29;20628;-78
2022/12/04 01:13:43;;;;;;;58.25;20.23;;;;;;;;;;4890835;29;20113;-77
2022/12/04 01:16:17;;;;;;;63.58;20.98;;;;;;;;;;4890948;29;20126;-77
2022/12/04 01:18:43;;;;;;;67.85;21.65;;;;;;;;;;4892548;29;20509;-77
2022/12/04 01:21:10;;;;;;;57.00;20.67;;;;;;;;;;4878436;29;20059;-78
2022/12/04 01:23:37;;;;;;;59.67;20.60;;;;;;;;;;4882151;29;20054;-77
2022/12/04 01:26:03;;;;;;;58.05;21.05;;;;;;;;;;4887923;29;20057;-77
2022/12/04 01:28:29;;;;;;;58.25;21.15;;;;;;;;;;4886287;29;20140;-78
2022/12/04 01:31:00;;;;;;;57.42;21.25;;;;;;;;;;4885992;29;20064;-77
2022/12/04 01:33:27;;;;;;;59.15;20.17;;;;;;;;;;4892911;29;20061;-77
2022/12/04 01:35:55;;;;;;;56.15;20.00;;;;;;;;;;4874881;29;20093;-77
2022/12/04 01:38:21;;;;;;;61.75;20.08;;;;;;;;;;4886890;29;20092;-77
2022/12/04 01:40:48;;;;;;;57.78;20.52;;;;;;;;;;4893771;29;20516;-77
2022/12/04 01:43:15;;;;;;;56.50;19.90;;;;;;;;;;4893270;29;20480;-77
2022/12/04 01:45:42;;;;;;;59.17;21.20;;;;;;;;;;4892490;29;20072;-78
2022/12/04 01:48:31;;;;;;;59.08;20.38;;;;;;;;;;4892539;29;20147;-77
2022/12/04 01:51:06;;;;;;;58.67;20.17;;;;;;;;;;4887718;29;20072;-77
2022/12/04 01:53:33;;;;;;;59.17;21.17;;;;;;;;;;4893364;29;20080;-77
2022/12/04 01:56:01;;;;;;;60.83;20.88;;;;;;;;;;4892588;29;20511;-77
2022/12/04 01:58:30;;;;;;;62.80;20.77;;;;;;;;;;4892982;29;20540;-77
2022/12/04 02:00:59;;;;;;;62.78;20.70;;;;;;;;;;4893683;29;20100;-77
2022/12/04 02:03:32;;;;;;;58.42;20.90;;;;;;;;;;4881455;29;20779;-77
2022/12/04 02:05:58;;;;;;;62.72;20.30;;;;;;;;;;4893260;29;20068;-77
2022/12/04 02:08:25;;;;;;;62.15;21.35;;;;;;;;;;4870903;29;20053;-77
2022/12/04 02:11:09;;;;;;;61.63;20.55;;;;;;;;;;4897321;29;20108;-78
2022/12/04 02:13:56;;;;;;;54.55;19.98;;;;;;;;;;4898304;29;20611;-78
2022/12/04 02:16:25;;;;;;;63.03;21.30;;;;;;;;;;4890892;29;20056;-78
2022/12/04 02:19:13;;;;;;;56.03;20.00;;;;;;;;;;4896921;29;20523;-77
2022/12/04 02:21:42;;;;;;;54.28;20.73;;;;;;;;;;4888476;29;20062;-77
2022/12/04 02:24:17;;;;;;;59.10;19.70;;;;;;;;;;4883698;29;20616;-77
2022/12/04 02:26:43;;;;;;;61.35;21.35;;;;;;;;;;4885729;29;20508;-77
2022/12/04 02:29:16;;;;;;;61.55;19.25;;;;;;;;;;4886129;29;20053;-78
2022/12/04 02:31:58;;;;;;;59.05;20.13;;;;;;;;;;4884463;29;20517;-78
2022/12/04 02:34:27;;;;;;;55.78;20.85;;;;;;;;;;4878527;29;20061;-77
2022/12/04 02:37:05;;;;;;;55.42;20.88;;;;;;;;;;4879755;29;20712;-77
2022/12/04 02:39:43;;;;;;;62.95;20.98;;;;;;;;;;4869252;29;20057;-78
2022/12/04 02:42:12;;;;;;;61.33;20.60;;;;;;;;;;4892666;29;20788;-77
2022/12/04 02:44:42;;;;;;;64.00;22.77;;;;;;;;;;4893779;29;20538;-77
2022/12/04 02:47:11;;;;;;;62.53;21.70;;;;;;;;;;4890566;29;20513;-77
2022/12/04 02:49:42;;;;;;;54.55;19.88;;;;;;;;;;4875271;29;20156;-77
2022/12/04 02:52:09;;;;;;;55.70;20.35;;;;;;;;;;4882826;29;20064;-78
2022/12/04 02:54:40;;;;;;;59.50;21.02;;;;;;;;;;4879354;29;20057;-77
2022/12/04 02:57:22;;;;;;;53.92;20.55;;;;;;;;;;4870495;29;20059;-78
2022/12/04 02:59:49;;;;;;;61.63;22.20;;;;;;;;;;4888947;29;20243;-77
2022/12/04 03:02:24;;;;;;;56.33;20.75;;;;;;;;;;4881814;29;20048;-77
2022/12/04 03:04:52;;;;;;;58.40;19.85;;;;;;;;;;4889944;29;20136;-77
2022/12/04 03:07:23;;;;;;;55.35;20.50;;;;;;;;;;4895119;29;20448;-77
2022/12/04 03:09:53;;;;;;;58.45;21.02;;;;;;;;;;4890957;29;20068;-77
2022/12/04 03:12:26;;;;;;;61.22;21.88;;;;;;;;;;4870353;29;20060;-78
2022/12/04 03:15:11;;;;;;;57.28;20.83;;;;;;;;;;4891515;29;20075;-77
2022/12/04 03:17:44;;;;;;;55.58;19.60;;;;;;;;;;4891689;29;20061;-77
2022/12/04 03:20:13;;;;;;;58.72;20.58;;;;;;;;;;4890753;29;20324;-77
2022/12/04 03:22:41;;;;;;;62.28;21.48;;;;;;;;;;4884570;29;20844;-78
2022/12/04 03:25:07;;;;;;;57.58;20.88;;;;;;;;;;4901277;29;20053;-77
2022/12/04 03:27:39;;;;;;;60.30;20.98;;;;;;;;;;4873289;29;20605;-78
2022/12/04 03:30:10;;;;;;;56.75;20.48;;;;;;;;;;4889907;29;20053;-77
2022/12/04 03:32:42;;;;;;;58.17;22.02;;;;;;;;;;4892044;29;20060;-77
2022/12/04 03:35:15;;;;;;;56.58;20.33;;;;;;;;;;4875470;29;20067;-77
2022/12/04 03:37:41;;;;;;;60.88;21.42;;;;;;;;;;4894601;29;20059;-78
2022/12/04 03:40:14;;;;;;;62.38;22.10;;;;;;;;;;4886415;29;20057;-77
2022/12/04 03:43:06;;;;;;;54.65;20.30;;;;;;;;;;4889528;29;20514;-77
2022/12/04 03:45:40;;;;;;;58.03;21.60;;;;;;;;;;4873637;29;20093;-77
2022/12/04 03:48:11;;;;;;;61.00;20.60;;;;;;;;;;4884874;29;20065;-77
2022/12/04 03:50:41;;;;;;;57.53;21.08;;;;;;;;;;4890754;29;20572;-77
2022/12/04 03:53:24;;;;;;;61.38;21.13;;;;;;;;;;4884546;29;20053;-78
2022/12/04 03:55:53;;;;;;;54.10;21.02;;;;;;;;;;4890202;29;20113;-77
2022/12/04 03:58:22;;;;;;;59.15;20.67;;;;;;;;;;4874265;29;20560;-77
2022/12/04 04:00:52;;;;;;;63.85;21.23;;;;;;;;;;4889819;29;20092;-77
2022/12/04 04:03:21;;;;;;;57.53;19.90;;;;;;;;;;4886164;29;20512;-77
2022/12/04 04:05:51;;;;;;;56.75;19.85;;;;;;;;;;4879598;29;20140;-78
2022/12/04 04:08:28;;;;;;;60.05;21.98;;;;;;;;;;4892581;29;20071;-78
2022/12/04 04:10:58;;;;;;;60.13;21.33;;;;;;;;;;4892242;29;20076;-77
2022/12/04 04:24:39;;;;;;;62.80;21.35;;;;;;;;;;4889641;29;20117;-78
2022/12/04 04:27:05;;;;;;;60.63;20.65;;;;;;;;;;4896844;29;20147;-77
2022/12/04 04:29:32;;;;;;;64.05;21.52;;;;;;;;;;4890939;29;20049;-77
2022/12/04 04:32:02;;;;;;;59.20;21.02;;;;;;;;;;4893097;29;20536;-77
2022/12/04 04:34:38;;;;;;;57.72;19.50;;;;;;;;;;4889642;29;20064;-77
2022/12/04 04:37:15;;;;;;;56.03;21.38;;;;;;;;;;4889257;29;20063;-78
2022/12/04 04:39:41;;;;;;;51.90;19.88;;;;;;;;;;4887872;29;20143;-77
2022/12/04 04:42:12;;;;;;;57.58;20.73;;;;;;;;;;4887613;29;20059;-77
2022/12/04 04:44:47;;;;;;;54.72;19.35;;;;;;;;;;4883623;29;20065;-77
2022/12/04 04:47:27;;;;;;;53.03;18.15;;;;;;;;;;4889865;29;20049;-77
2022/12/04 04:49:54;;;;;;;52.30;19.63;;;;;;;;;;4887454;29;20067;-77
2022/12/04 04:52:22;;;;;;;60.97;21.15;;;;;;;;;;4869684;29;20896;-77
2022/12/04 04:54:48;;;;;;;61.15;21.33;;;;;;;;;;4881502;29;20050;-77
2022/12/04 04:57:29;;;;;;;57.80;21.33;;;;;;;;;;4859898;29;20061;-77
2022/12/04 04:59:55;;;;;;;57.43;19.60;;;;;;;;;;4880290;29;20225;-78
2022/12/04 05:02:24;;;;;;;57.28;20.52;;;;;;;;;;4889992;29;20269;-77
2022/12/04 05:04:50;;;;;;;60.13;21.45;;;;;;;;;;4878040;29;20056;-78
2022/12/04 05:07:17;;;;;;;55.75;21.45;;;;;;;;;;4891432;29;20057;-77
2022/12/04 05:09:43;;;;;;;63.88;22.70;;;;;;;;;;4884482;29;20057;-77
2022/12/04 05:12:09;;;;;;;60.42;21.98;;;;;;;;;;4887541;29;20077;-77
2022/12/04 05:14:36;;;;;;;60.95;20.45;;;;;;;;;;4887899;29;20104;-77
2022/12/04 05:17:05;;;;;;;58.92;21.17;;;;;;;;;;4892097;29;20057;-77
2022/12/04 05:19:53;;;;;;;56.90;22.08;;;;;;;;;;4893324;29;20487;-77
2022/12/04 05:22:22;;;;;;;63.85;21.92;;;;;;;;;;4889246;29;20148;-77
2022/12/04 05:24:48;;;;;;;64.43;22.45;;;;;;;;;;4894036;29;20065;-77
2022/12/04 05:27:14;;;;;;;60.17;21.63;;;;;;;;;;4885168;29;20523;-77
2022/12/04 05:29:41;;;;;;;58.42;20.50;;;;;;;;;;4893723;29;20430;-77
2022/12/04 05:32:07;;;;;;;62.20;22.77;;;;;;;;;;4885823;29;20191;-77
2022/12/04 05:34:33;;;;;;;58.92;21.35;;;;;;;;;;4892563;29;20057;-77
2022/12/04 05:37:00;;;;;;;61.72;22.05;;;;;;;;;;4893723;29;20049;-77
2022/12/04 05:39:26;;;;;;;58.80;20.95;;;;;;;;;;4891901;29;20168;-77
2022/12/04 05:41:52;;;;;;;56.63;21.20;;;;;;;;;;4887485;29;20876;-77
2022/12/04 05:44:19;;;;;;;53.55;20.33;;;;;;;;;;4897590;29;20068;-78
2022/12/04 05:46:45;;;;;;;57.45;20.90;;;;;;;;;;4888729;29;20152;-77
2022/12/04 05:49:12;;;;;;;62.45;20.67;;;;;;;;;;4893525;29;20056;-77
2022/12/04 05:51:38;;;;;;;60.80;21.17;;;;;;;;;;4894102;29;20061;-78
2022/12/04 05:54:04;;;;;;;61.75;22.83;;;;;;;;;;4894261;29;20064;-78
2022/12/04 05:56:31;;;;;;;62.75;21.00;;;;;;;;;;4894486;29;20064;-77
2022/12/04 05:58:57;;;;;;;62.67;21.70;;;;;;;;;;4893767;29;20064;-77
2022/12/04 06:01:23;;;;;;;69.85;21.95;;;;;;;;;;4889632;29;20139;-77
2022/12/04 06:03:50;;;;;;;60.67;21.13;;;;;;;;;;4891960;29;20121;-77
2022/12/04 06:06:18;;;;;;;58.22;20.20;;;;;;;;;;4896245;29;20543;-78
2022/12/04 06:08:48;;;;;;;56.72;21.30;;;;;;;;;;4868711;29;20053;-77
2022/12/04 06:11:18;;;;;;;68.13;22.38;;;;;;;;;;4898084;29;20140;-77
2022/12/04 06:13:45;;;;;;;56.63;19.75;;;;;;;;;;4892444;29;20068;-77
2022/12/04 06:16:15;;;;;;;58.97;20.02;;;;;;;;;;4894579;29;20061;-77
2022/12/04 06:18:41;;;;;;;59.80;20.55;;;;;;;;;;4884722;29;20062;-77
2022/12/04 06:21:08;;;;;;;56.75;20.13;;;;;;;;;;4892040;29;20077;-77
2022/12/04 06:23:35;;;;;;;60.00;20.38;;;;;;;;;;4890223;29;20068;-78
2022/12/04 06:26:05;;;;;;;54.67;20.40;;;;;;;;;;4887758;29;20176;-77
2022/12/04 06:28:33;;;;;;;61.50;21.92;;;;;;;;;;4892653;29;20053;-78
2022/12/04 06:31:00;;;;;;;56.08;19.83;;;;;;;;;;4890325;29;20414;-78
2022/12/04 06:33:26;;;;;;;62.28;21.35;;;;;;;;;;4854602;29;1102208;-77
2022/12/04 06:35:57;;;;;;;61.72;20.35;;;;;;;;;;4890337;29;20162;-77
2022/12/04 06:38:23;;;;;;;49.60;19.13;;;;;;;;;;4896857;29;20065;-77
2022/12/04 06:40:49;;;;;;;58.03;21.33;;;;;;;;;;4892623;29;20465;-77
2022/12/04 06:43:16;;;;;;;54.95;21.48;;;;;;;;;;4889432;29;20532;-77
2022/12/04 06:45:42;;;;;;;59.88;19.73;;;;;;;;;;4889605;29;20084;-77
2022/12/04 06:48:08;;;;;;;53.30;20.92;;;;;;;;;;4894852;29;20526;-77
2022/12/04 06:50:35;;;;;;;52.78;19.60;;;;;;;;;;4893384;29;20079;-77
2022/12/04 06:53:01;;;;;;;60.92;21.75;;;;;;;;;;4871302;29;20711;-77
2022/12/04 06:55:33;;;;;;;52.60;20.75;;;;;;;;;;4893035;29;20057;-78
2022/12/04 06:58:00;;;;;;;56.10;19.90;;;;;;;;;;4897221;29;20652;-78
2022/12/04 07:00:26;;;;;;;57.30;20.48;;;;;;;;;;4893257;29;20144;-77
2022/12/04 07:02:52;;;;;;;55.97;19.73;;;;;;;;;;4885298;29;20963;-77
2022/12/04 07:05:19;;;;;;;58.30;20.85;;;;;;;;;;4892454;29;20068;-77
2022/12/04 07:07:45;;;;;;;60.72;20.85;;;;;;;;;;4890652;29;20057;-77
2022/12/04 07:10:12;;;;;;;54.13;19.98;;;;;;;;;;4891349;29;20057;-77
2022/12/04 07:12:38;;;;;;;53.13;20.60;;;;;;;;;;4891601;29;20061;-77
2022/12/04 07:15:05;;;;;;;53.30;19.02;;;;;;;;;;4897352;29;20057;-77
2022/12/04 07:17:31;;;;;;;57.08;19.98;;;;;;;;;;4891962;29;20057;-77
2022/12/04 07:19:57;;;;;;;55.05;19.75;;;;;;;;;;4888507;29;20057;-77
2022/12/04 07:22:25;;;;;;;56.60;20.42;;;;;;;;;;4891240;29;20947;-77
2022/12/04 07:24:51;;;;;;;50.95;20.65;;;;;;;;;;4889586;29;20061;-77
2022/12/04 07:27:17;;;;;;;54.67;19.65;;;;;;;;;;4882698;29;20113;-77
2022/12/04 07:29:44;;;;;;;57.05;19.92;;;;;;;;;;4892305;29;20152;-77
2022/12/04 07:32:10;;;;;;;56.03;20.35;;;;;;;;;;4890174;29;20516;-77
2022/12/04 07:34:37;;;;;;;57.67;20.13;;;;;;;;;;4897565;29;20186;-77
2022/12/04 07:37:03;;;;;;;57.78;20.90;;;;;;;;;;4885418;29;20068;-77
2022/12/04 07:39:30;;;;;;;54.72;20.08;;;;;;;;;;4890280;29;20057;-77
2022/12/04 07:41:56;;;;;;;59.22;19.92;;;;;;;;;;4885449;29;20870;-77
2022/12/04 07:44:22;;;;;;;55.35;20.95;;;;;;;;;;4884646;29;20067;-77
2022/12/04 07:46:49;;;;;;;59.13;19.55;;;;;;;;;;4872831;29;20508;-78
2022/12/04 07:49:15;;;;;;;58.00;20.02;;;;;;;;;;4885779;29;20072;-78
2022/12/04 07:51:42;;;;;;;58.40;19.50;;;;;;;;;;4888650;29;20061;-78
2022/12/04 07:54:08;;;;;;;56.30;21.00;;;;;;;;;;4874604;29;20061;-78
2022/12/04 07:56:34;;;;;;;51.33;18.40;;;;;;;;;;4873602;29;20605;-76
2022/12/04 07:59:01;;;;;;;61.67;20.35;;;;;;;;;;4890682;29;20065;-76
2022/12/04 08:01:28;;;;;;;57.78;21.13;;;;;;;;;;4871669;29;20096;-76
2022/12/04 08:03:56;;;;;;;52.40;21.60;;;;;;;;;;4890306;29;20215;-77
2022/12/04 08:06:24;;;;;;;62.42;21.23;;;;;;;;;;4889934;29;20061;-76
2022/12/04 08:08:51;;;;;;;51.85;18.05;;;;;;;;;;4891135;29;20113;-76
2022/12/04 08:11:18;;;;;;;63.80;20.98;;;;;;;;;;4886112;29;20053;-78
2022/12/04 08:13:44;;;;;;;61.80;20.45;;;;;;;;;;4874678;29;20064;-78
2022/12/04 08:16:11;;;;;;;52.88;20.17;;;;;;;;;;4865887;29;20070;-78
2022/12/04 08:18:39;;;;;;;53.15;19.65;;;;;;;;;;4884527;29;20156;-77
2022/12/04 08:21:09;;;;;;;57.63;19.85;;;;;;;;;;4885639;29;20072;-79
2022/12/04 08:23:36;;;;;;;62.70;21.20;;;;;;;;;;4887304;29;20063;-78
2022/12/04 08:26:03;;;;;;;54.47;19.42;;;;;;;;;;4885454;29;20436;-78
2022/12/04 08:28:29;;;;;;;57.78;19.55;;;;;;;;;;4886392;29;20060;-78
2022/12/04 08:31:01;;;;;;;55.30;20.17;;;;;;;;;;4875652;29;20068;-78
2022/12/04 08:33:27;;;;;;;58.50;19.95;;;;;;;;;;4885536;29;20524;-76
2022/12/04 08:35:53;;;;;;;63.10;20.20;;;;;;;;;;4882064;29;20486;-78
2022/12/04 08:38:20;;;;;;;57.33;20.48;;;;;;;;;;4874157;29;20057;-78
2022/12/04 08:40:46;;;;;;;53.47;19.13;;;;;;;;;;4896825;29;20384;-78
2022/12/04 08:43:13;;;;;;;59.53;21.77;;;;;;;;;;4870291;29;20053;-78
2022/12/04 08:45:39;;;;;;;55.30;20.83;;;;;;;;;;4887387;29;20049;-78
2022/12/04 08:48:05;;;;;;;56.38;20.10;;;;;;;;;;4881188;29;20190;-78
2022/12/04 08:50:32;;;;;;;53.03;19.23;;;;;;;;;;4886692;29;20512;-78
2022/12/04 08:52:58;;;;;;;51.47;19.83;;;;;;;;;;4889623;29;20057;-78
2022/12/04 08:55:24;;;;;;;55.22;19.90;;;;;;;;;;4886729;29;20063;-76
2022/12/04 08:57:51;;;;;;;56.95;19.55;;;;;;;;;;4887273;29;20294;-76
2022/12/04 09:00:18;;;;;;;53.50;19.88;;;;;;;;;;4865303;29;20060;-76
2022/12/04 09:02:47;;;;;;;57.33;20.05;;;;;;;;;;4888841;29;20056;-76
2022/12/04 09:05:13;;;;;;;55.50;20.02;;;;;;;;;;4887185;29;20088;-76
2022/12/04 09:07:39;;;;;;;59.80;20.60;;;;;;;;;;4892770;29;20493;-76
2022/12/04 09:10:06;;;;;;;52.25;19.30;;;;;;;;;;4889048;29;20088;-76
2022/12/04 09:12:32;;;;;;;52.08;17.83;;;;;;;;;;4886044;29;20057;-76
2022/12/04 09:14:59;;;;;;;51.80;19.08;;;;;;;;;;4899189;29;20500;-77
2022/12/04 09:17:25;;;;;;;56.00;18.90;;;;;;;;;;4884334;29;20579;-78
2022/12/04 09:19:51;;;;;;;49.55;18.02;;;;;;;;;;4889076;29;20053;-76
2022/12/04 09:22:24;;;;;;;51.13;18.15;;;;;;;;;;4887655;29;20060;-76
2022/12/04 09:24:50;;;;;;;50.33;18.83;;;;;;;;;;4893924;29;20143;-76
2022/12/04 09:27:17;;;;;;;60.40;19.67;;;;;;;;;;4886441;29;20187;-76
2022/12/04 09:29:43;;;;;;;57.90;19.42;;;;;;;;;;4892898;29;20841;-76
2022/12/04 09:32:09;;;;;;;44.33;18.48;;;;;;;;;;4890310;29;20062;-76
2022/12/04 09:34:35;;;;;;;50.10;18.45;;;;;;;;;;4891064;29;20061;-76
2022/12/04 09:37:02;;;;;;;53.53;18.73;;;;;;;;;;4890449;29;20175;-76
2022/12/04 09:39:28;;;;;;;53.47;19.00;;;;;;;;;;4890852;29;20053;-76
2022/12/04 09:42:10;;;;;;;53.33;19.33;;;;;;;;;;4898503;29;20063;-76
2022/12/04 09:44:42;;;;;;;54.03;19.23;;;;;;;;;;4897075;29;20061;-76
2022/12/04 09:47:18;;;;;;;51.17;17.92;;;;;;;;;;4893597;29;20065;-78
2022/12/04 09:50:22;;;;;;;56.88;20.00;;;;;;;;;;4883061;29;20560;-76
2022/12/04 09:52:58;;;;;;;54.03;18.08;;;;;;;;;;4817546;29;20530;-76
2022/12/04 09:55:31;;;;;;;51.38;18.33;;;;;;;;;;4829883;29;20157;-76
2022/12/04 09:58:00;;;;;;;50.80;17.13;;;;;;;;;;4866995;29;20063;-76
2022/12/04 10:00:29;;;;;;;51.80;17.85;;;;;;;;;;4895620;29;20061;-76
2022/12/04 10:03:06;;;;;;;54.13;18.90;;;;;;;;;;4899957;29;20068;-79
2022/12/04 10:05:47;;;;;;;47.85;16.42;;;;;;;;;;4878269;29;20176;-77
2022/12/04 10:08:34;;;;;;;49.00;17.20;;;;;;;;;;4888330;29;20049;-78
2022/12/04 10:11:17;;;;;;;44.72;15.93;;;;;;;;;;4898262;29;20091;-77
2022/12/04 10:13:47;;;;;;;49.42;17.17;;;;;;;;;;4888607;29;20136;-77
2022/12/04 10:16:19;;;;;;;44.78;17.50;;;;;;;;;;4880429;29;20069;-77
2022/12/04 10:18:46;;;;;;;46.80;17.58;;;;;;;;;;4893095;29;20061;-77
2022/12/04 10:21:27;;;;;;;42.92;14.38;;;;;;;;;;4889488;29;20833;-77
2022/12/04 10:24:00;;;;;;;48.08;16.83;;;;;;;;;;4889548;29;20613;-77
2022/12/04 10:26:29;;;;;;;43.08;15.82;;;;;;;;;;4897645;29;20056;-76
2022/12/04 10:29:01;;;;;;;40.35;15.50;;;;;;;;;;4873725;29;20511;-77
2022/12/04 10:31:28;;;;;;;44.05;15.18;;;;;;;;;;4888357;29;20092;-77
2022/12/04 10:33:59;;;;;;;40.90;14.10;;;;;;;;;;4891891;29;20063;-77
2022/12/04 10:36:31;;;;;;;38.33;14.38;;;;;;;;;;4903033;29;20055;-76
2022/12/04 10:39:18;;;;;;;38.65;14.45;;;;;;;;;;4879749;29;20064;-77
2022/12/04 10:41:44;;;;;;;45.30;14.13;;;;;;;;;;4877646;29;20071;-76
2022/12/04 10:44:13;;;;;;;35.10;12.73;;;;;;;;;;4882039;29;20069;-77
2022/12/04 10:46:40;;;;;;;42.97;15.82;;;;;;;;;;4884245;29;20057;-76
2022/12/04 10:49:33;;;;;;;38.97;13.68;;;;;;;;;;4895257;29;20060;-77
2022/12/04 10:51:59;;;;;;;34.80;12.77;;;;;;;;;;4898564;29;20918;-76
2022/12/04 10:54:26;;;;;;;37.88;13.18;;;;;;;;;;4886059;29;20068;-76
2022/12/04 10:56:56;;;;;;;35.15;13.07;;;;;;;;;;4886704;29;20057;-76
2022/12/04 10:59:23;;;;;;;36.97;13.02;;;;;;;;;;4891267;29;20061;-76
2022/12/04 11:01:51;;;;;;;31.23;12.90;;;;;;;;;;4884065;29;20057;-77
2022/12/04 11:04:28;;;;;;;36.97;13.70;;;;;;;;;;4886807;29;20061;-76
2022/12/04 11:07:02;;;;;;;31.80;12.02;;;;;;;;;;4889301;29;20063;-77
2022/12/04 11:09:29;;;;;;;33.42;12.77;;;;;;;;;;4899458;29;20078;-76
2022/12/04 11:12:03;;;;;;;35.03;12.70;;;;;;;;;;4873767;29;20901;-76
2022/12/04 11:14:30;;;;;;;34.97;11.95;;;;;;;;;;4894116;29;20060;-77
2022/12/04 11:17:02;;;;;;;32.80;12.30;;;;;;;;;;4887684;29;20131;-76
2022/12/04 11:19:29;;;;;;;34.70;12.38;;;;;;;;;;4870737;29;20092;-76
2022/12/04 11:21:59;;;;;;;30.63;12.50;;;;;;;;;;4877522;29;20053;-76
2022/12/04 11:24:28;;;;;;;31.85;11.32;;;;;;;;;;4882699;29;20061;-77
2022/12/04 11:26:55;;;;;;;32.10;12.70;;;;;;;;;;4887087;29;20057;-76
2022/12/04 11:29:26;;;;;;;28.55;11.50;;;;;;;;;;4898370;29;20540;-77
2022/12/04 11:31:54;;;;;;;31.08;12.27;;;;;;;;;;4873977;29;20056;-76
2022/12/04 11:34:22;;;;;;;26.50;11.00;;;;;;;;;;4890411;29;20071;-76
2022/12/04 11:36:53;;;;;;;31.25;12.50;;;;;;;;;;4888966;29;20061;-76
2022/12/04 11:39:25;;;;;;;26.25;10.80;;;;;;;;;;4871587;29;20063;-76
2022/12/04 11:42:18;;;;;;;28.10;12.02;;;;;;;;;;4879947;29;20116;-76
2022/12/04 11:44:51;;;;;;;25.38;10.30;;;;;;;;;;4887318;29;20061;-76
2022/12/04 11:47:19;;;;;;;26.27;11.35;;;;;;;;;;4872257;29;20057;-76
2022/12/04 11:49:56;;;;;;;28.05;11.18;;;;;;;;;;4871611;29;20488;-77
2022/12/04 11:52:29;;;;;;;30.75;11.98;;;;;;;;;;4878750;29;20056;-77
2022/12/04 11:55:01;;;;;;;30.48;12.13;;;;;;;;;;4890143;29;20107;-76
2022/12/04 11:57:33;;;;;;;27.23;11.43;;;;;;;;;;4888263;29;20085;-76
2022/12/04 12:00:23;;;;;;;27.25;11.93;;;;;;;;;;4899291;29;20568;-77
2022/12/04 12:03:08;;;;;;;28.27;12.32;;;;;;;;;;4869698;29;20063;-76
2022/12/04 12:05:53;;;;;;;27.08;10.20;;;;;;;;;;4897861;29;20577;-76
2022/12/04 12:08:35;;;;;;;25.80;10.85;;;;;;;;;;4892712;29;20068;-76
2022/12/04 12:11:09;;;;;;;25.33;10.55;;;;;;;;;;4885123;29;20272;-76
2022/12/04 12:13:36;;;;;;;28.33;11.27;;;;;;;;;;4891204;29;20566;-76
2022/12/04 12:16:11;;;;;;;25.50;9.82;;;;;;;;;;4872551;29;20490;-76
2022/12/04 12:18:44;;;;;;;21.67;10.30;;;;;;;;;;4881791;29;20041;-76
2022/12/04 12:21:10;;;;;;;24.58;10.18;;;;;;;;;;4904769;29;20070;-78
2022/12/04 12:23:45;;;;;;;23.83;9.90;;;;;;;;;;4905863;29;20068;-76
2022/12/04 12:26:12;;;;;;;22.98;10.07;;;;;;;;;;4896232;29;20487;-77
2022/12/04 12:28:57;;;;;;;23.67;10.50;;;;;;;;;;4894492;29;20061;-76
2022/12/04 12:31:39;;;;;;;21.50;9.90;;;;;;;;;;4884774;29;20064;-76
2022/12/04 12:34:22;;;;;;;25.85;11.52;;;;;;;;;;4898856;29;20152;-78
2022/12/04 12:37:02;;;;;;;24.00;10.13;;;;;;;;;;4896631;29;20060;-77
2022/12/04 12:39:48;;;;;;;23.90;10.50;;;;;;;;;;4871782;29;20113;-78
2022/12/04 12:42:23;;;;;;;28.17;11.45;;;;;;;;;;4876684;29;20053;-77
2022/12/04 12:44:56;;;;;;;24.20;9.85;;;;;;;;;;4901063;29;20114;-78
2022/12/04 12:47:29;;;;;;;23.05;9.23;;;;;;;;;;4893840;29;20079;-78
2022/12/04 12:49:56;;;;;;;;;;;;;;;;;;4885438;29;20065;-78
2022/12/04 12:52:39;;;;;;;24.52;10.85;;;;;;;;;;4898167;29;48244;-78
2022/12/04 12:55:31;;;;;;;26.30;10.68;;;;;;;;;;4900862;29;20137;-77
2022/12/04 12:58:07;;;;;;;25.77;10.15;;;;;;;;;;4886130;29;20057;-76
2022/12/04 13:00:36;;;;;;;;;;;;;;;;;;4883141;29;20612;-76
2022/12/04 13:03:03;;;;;;;22.58;10.23;;;;;;;;;;4888272;29;42738;-76
2022/12/04 13:05:33;;;;;;;23.35;9.90;;;;;;;;;;4882636;29;20065;-76
2022/12/04 13:08:03;;;;;;;24.00;10.27;;;;;;;;;;4886987;29;20122;-76
2022/12/04 13:10:39;;;;;;;24.13;10.55;;;;;;;;;;4898465;29;20067;-76
2022/12/04 13:13:18;;;;;;;25.58;10.38;;;;;;;;;;4894975;29;20569;-76
2022/12/04 13:15:57;;;;;;;22.50;9.27;;;;;;;;;;4891853;29;20057;-76
2022/12/04 13:18:28;;;;;;;22.50;9.63;;;;;;;;;;4878332;29;20175;-76
2022/12/04 13:20:59;;;;;;;27.27;10.10;;;;;;;;;;4889233;29;20049;-77
2022/12/04 13:23:45;;;;;;;24.60;10.13;;;;;;;;;;4890131;29;20063;-77
2022/12/04 13:26:22;;;;;;;23.83;9.82;;;;;;;;;;4897221;29;20132;-77
2022/12/04 13:29:01;;;;;;;21.83;10.00;;;;;;;;;;4896618;29;20144;-77
2022/12/04 13:31:57;;;;;;;24.20;9.85;;;;;;;;;;4900395;29;20052;-76
2022/12/04 13:34:46;;;;;;;23.20;9.98;;;;;;;;;;4887237;29;20060;-77
2022/12/04 13:37:33;;;;;;;20.00;9.52;;;;;;;;;;4900871;29;20512;-77
2022/12/04 13:40:28;;;;;;;22.60;9.77;;;;;;;;;;4870402;29;20065;-77
2022/12/04 13:43:34;;;;;;;22.17;9.80;;;;;;;;;;4882961;29;20060;-77
2022/12/04 13:46:06;;;;;;;23.13;9.73;;;;;;;;;;4899449;29;20117;-76
2022/12/04 13:48:43;;;;;;;23.40;9.95;;;;;;;;;;4886426;29;20060;-76
2022/12/04 13:51:15;;;;;;;23.45;10.38;;;;;;;;;;4903491;29;20556;-76
2022/12/04 13:53:59;;;;;;;26.38;9.80;;;;;;;;;;4887364;29;20548;-77
2022/12/04 13:56:27;;;;;;;25.73;10.40;;;;;;;;;;4873829;29;21390;-76
2022/12/04 13:59:01;;;;;;;29.05;11.43;;;;;;;;;;4891104;29;20061;-76
2022/12/04 14:01:29;;;;;;;30.60;11.95;;;;;;;;;;4889623;29;20132;-76
2022/12/04 14:03:58;;;;;;;27.58;11.73;;;;;;;;;;4892800;29;20064;-76
2022/12/04 14:06:26;;;;;;;26.02;11.20;;;;;;;;;;4891692;29;20065;-76
2022/12/04 14:08:57;;;;;;;25.38;10.65;;;;;;;;;;4891220;29;20061;-77
2022/12/04 14:11:24;;;;;;;27.92;10.57;;;;;;;;;;4887851;29;20148;-76
2022/12/04 14:13:55;;;;;;;26.38;11.60;;;;;;;;;;4879023;29;20500;-76
2022/12/04 14:16:21;;;;;;;;;;;;;;;;;;4900792;29;20057;-76
2022/12/04 14:18:50;;;;;;;26.85;11.10;;;;;;;;;;4891324;29;45611;-76
2022/12/04 14:21:17;;;;;;;25.85;10.85;;;;;;;;;;4875697;29;20067;-76
2022/12/04 14:23:43;;;;;;;27.65;11.70;;;;;;;;;;4902184;29;20427;-76
2022/12/04 14:26:20;;;;;;;26.55;11.35;;;;;;;;;;4903809;29;20068;-76
2022/12/04 14:28:47;;;;;;;28.45;12.18;;;;;;;;;;4891854;29;20087;-76
2022/12/04 14:31:22;;;;;;;29.45;12.35;;;;;;;;;;4894689;29;20064;-76
2022/12/04 14:34:00;;;;;;;28.10;11.70;;;;;;;;;;4875945;29;20495;-77
2022/12/04 14:36:33;;;;;;;30.92;12.30;;;;;;;;;;4883793;29;20172;-76
2022/12/04 14:39:06;;;;;;;28.17;12.20;;;;;;;;;;4888350;29;20140;-76
2022/12/04 14:41:33;;;;;;;28.83;11.43;;;;;;;;;;4887310;29;20063;-76
2022/12/04 14:43:59;;;;;;;31.92;12.30;;;;;;;;;;4878284;29;20525;-76
2022/12/04 14:46:29;;;;;;;31.63;13.20;;;;;;;;;;4886062;29;20143;-76
2022/12/04 14:49:14;;;;;;;35.28;13.07;;;;;;;;;;4890520;29;20697;-76
2022/12/04 14:51:46;;;;;;;30.85;13.02;;;;;;;;;;4885566;29;20916;-76